Terminal Aerodrome Forecast
Issued by NWS

Home | Current Version | Previous Version | Text Only | Print | Product List | Glossary On
Versions: 1 2 3 4 5 6 7 8 9 10 11 12 13 14 15 16 17
000
FTUS42 KTBW 251100
TAFLAL
TAF
KLAL 251123Z 2512/2612 32007KT P6SM SCT015 BKN050
     FM252200 02005KT P6SM FEW090 SCT250
     FM260300 04003KT P6SM FEW012 SCT250=

USA.gov is the U.S. government's official web portal to all federal, state and local government web resources and services.